Time;durP1;ratioP1;P1;durP2;ratioP2;P2;SDS_P1;SDS_P2;PMS_P1;PMS_P2;Temp;Humidity;BMP_temperature;BMP_pressure;BME280_temperature;BME280_humidity;BME280_pressure;Samples;Min_cycle;Max_cycle;Signal;HPM_P1;HPM_P2
2022/09/04 00:00:50;;;;;;;1999.90;999.90;;;13.50;99.90;;;;;;5026904;28;20405;-78
2022/09/04 00:03:25;;;;;;;1999.90;999.90;;;13.50;99.90;;;;;;5022098;28;20034;-78
2022/09/04 00:05:54;;;;;;;1999.90;999.90;;;13.50;99.90;;;;;;5023306;28;20559;-78
2022/09/04 00:08:23;;;;;;;1999.90;999.90;;;13.50;99.90;;;;;;5024842;28;20554;-78
2022/09/04 00:10:57;;;;;;;1999.90;999.90;;;13.50;99.90;;;;;;5028792;28;20025;-78
2022/09/04 00:13:29;;;;;;;1999.90;999.90;;;13.50;99.90;;;;;;5016233;28;20024;-78
2022/09/04 00:16:05;;;;;;;1999.90;999.90;;;13.40;99.90;;;;;;5024374;28;20025;-78
2022/09/04 00:18:36;;;;;;;1999.90;999.90;;;13.40;99.90;;;;;;5031719;28;20030;-78
2022/09/04 00:21:20;;;;;;;1999.90;999.90;;;13.40;99.90;;;;;;5029682;28;20033;-78
2022/09/04 00:23:59;;;;;;;1999.90;999.90;;;13.50;99.90;;;;;;5026923;28;20026;-78
2022/09/04 00:26:57;;;;;;;1999.90;999.90;;;13.40;99.90;;;;;;5014627;28;20053;-78
2022/09/04 00:29:26;;;;;;;1999.90;999.90;;;13.30;99.90;;;;;;5022087;28;20097;-78
2022/09/04 00:32:17;;;;;;;1999.90;999.90;;;13.30;99.90;;;;;;5023839;28;20025;-78
2022/09/04 00:34:52;;;;;;;1999.90;999.90;;;13.30;99.90;;;;;;4983328;28;20112;-78
2022/09/04 00:37:23;;;;;;;1999.90;999.90;;;13.20;99.90;;;;;;5025501;28;20053;-78
2022/09/04 00:40:08;;;;;;;1999.90;999.90;;;13.20;99.90;;;;;;5024449;28;20073;-78
2022/09/04 00:43:02;;;;;;;1999.90;999.90;;;13.20;99.90;;;;;;5025978;28;20083;-78
2022/09/04 00:45:34;;;;;;;1999.90;999.90;;;13.20;99.90;;;;;;5026877;28;20080;-78
2022/09/04 00:48:51;;;;;;;1999.90;999.90;;;13.30;99.90;;;;;;5023716;28;20113;-78
2022/09/04 00:51:34;;;;;;;1999.90;999.90;;;13.30;99.90;;;;;;5000848;28;20040;-78
2022/09/04 00:54:20;;;;;;;1999.90;999.90;;;13.30;99.90;;;;;;5022078;28;20148;-78
2022/09/04 00:57:15;;;;;;;1999.90;999.90;;;13.20;99.90;;;;;;5008678;28;20590;-78
2022/09/04 01:00:13;;;;;;;1999.90;999.90;;;13.10;99.90;;;;;;5025628;28;20109;-78
2022/09/04 01:03:00;;;;;;;1999.90;999.90;;;13.10;99.90;;;;;;5026824;28;20060;-78
2022/09/04 01:05:32;;;;;;;1999.90;999.90;;;13.00;99.90;;;;;;5022853;28;20021;-78
2022/09/04 01:08:12;;;;;;;1999.90;999.90;;;13.00;99.90;;;;;;5024591;28;20030;-78
2022/09/04 01:10:44;;;;;;;1999.90;999.90;;;12.90;99.90;;;;;;5024896;28;20032;-79
2022/09/04 01:13:32;;;;;;;1999.90;999.90;;;13.00;99.90;;;;;;5022385;28;20037;-78
2022/09/04 01:16:09;;;;;;;1999.90;999.90;;;12.90;99.90;;;;;;5027479;28;20030;-79
2022/09/04 01:18:56;;;;;;;1999.90;999.90;;;12.90;99.90;;;;;;5018957;28;20073;-78
2022/09/04 01:22:09;;;;;;;1999.90;999.90;;;12.90;99.90;;;;;;5026657;28;20500;-78
2022/09/04 01:25:07;;;;;;;1999.90;999.90;;;12.90;99.90;;;;;;5023999;28;20037;-78
2022/09/04 01:27:53;;;;;;;1999.90;999.90;;;12.80;99.90;;;;;;5035754;28;20026;-78
2022/09/04 01:30:20;;;;;;;1999.90;999.90;;;12.80;99.90;;;;;;5028012;28;20159;-78
2022/09/04 01:33:34;;;;;;;1999.90;999.90;;;12.80;99.90;;;;;;5020857;28;20533;-78
2022/09/04 01:36:29;;;;;;;1999.90;999.90;;;12.70;99.90;;;;;;4945197;29;20110;-79
2022/09/04 01:38:57;;;;;;;1999.90;999.90;;;12.60;99.90;;;;;;5024458;28;20554;-78
2022/09/04 01:41:44;;;;;;;1999.90;999.90;;;12.60;99.90;;;;;;5017161;28;20040;-78
2022/09/04 01:44:11;;;;;;;1999.90;999.90;;;12.60;99.90;;;;;;5026644;28;20113;-79
2022/09/04 01:46:51;;;;;;;1999.90;999.90;;;12.60;99.90;;;;;;5025185;28;20033;-79
2022/09/04 01:49:33;;;;;;;;;;;12.60;99.90;;;;;;5028495;28;20171;-79
2022/09/04 01:52:13;;;;;;;1999.90;999.90;;;12.60;99.90;;;;;;5027712;28;19909;-78
2022/09/04 01:55:06;;;;;;;1999.90;999.90;;;12.60;99.90;;;;;;5025726;28;20045;-79
2022/09/04 01:58:05;;;;;;;1999.90;999.90;;;12.60;99.90;;;;;;5027328;28;20025;-78
2022/09/04 02:00:37;;;;;;;1999.90;999.90;;;12.50;99.90;;;;;;5024350;28;20041;-78
2022/09/04 02:03:24;;;;;;;1999.90;999.90;;;12.50;99.90;;;;;;5024945;28;20048;-78
2022/09/04 02:06:11;;;;;;;1999.90;999.90;;;12.40;99.90;;;;;;5020839;28;20112;-78
2022/09/04 02:08:58;;;;;;;1999.90;999.90;;;12.30;99.90;;;;;;5030623;28;20061;-78
2022/09/04 02:11:28;;;;;;;1999.90;999.90;;;12.30;99.90;;;;;;5027657;28;20018;-79
2022/09/04 02:14:07;;;;;;;1999.90;999.90;;;12.30;99.90;;;;;;5026935;28;20049;-78
2022/09/04 02:16:59;;;;;;;1999.90;999.90;;;12.30;99.90;;;;;;5026218;28;20487;-78
2022/09/04 02:19:43;;;;;;;1999.90;999.90;;;12.30;99.90;;;;;;5023307;28;20033;-79
2022/09/04 02:22:27;;;;;;;1999.90;999.90;;;12.30;99.90;;;;;;5025733;28;20489;-78
2022/09/04 02:25:01;;;;;;;1999.90;999.90;;;12.30;99.90;;;;;;5026276;28;20041;-78
2022/09/04 02:27:45;;;;;;;1999.90;999.90;;;12.30;99.90;;;;;;5021527;28;20025;-79
2022/09/04 02:30:14;;;;;;;1999.90;999.90;;;12.30;99.90;;;;;;5028627;28;20065;-79
2022/09/04 02:32:47;;;;;;;1999.90;999.90;;;12.30;99.90;;;;;;5025095;28;20527;-78
2022/09/04 02:35:33;;;;;;;1999.90;999.90;;;12.20;99.90;;;;;;5024179;28;20856;-78
2022/09/04 02:38:29;;;;;;;1999.90;999.90;;;12.20;99.90;;;;;;5027503;28;20084;-79
2022/09/04 02:41:15;;;;;;;1999.90;999.90;;;12.10;99.90;;;;;;5022007;28;20042;-79
2022/09/04 02:44:09;;;;;;;1999.90;999.90;;;12.10;99.90;;;;;;5027217;28;20033;-79
2022/09/04 02:46:43;;;;;;;1999.90;999.90;;;12.00;99.90;;;;;;5026753;28;20036;-76
2022/09/04 02:49:19;;;;;;;1999.90;999.90;;;12.00;99.90;;;;;;5028928;28;20029;-76
2022/09/04 02:52:22;;;;;;;1999.90;999.90;;;12.00;99.90;;;;;;5026171;28;20029;-78
2022/09/04 02:54:57;;;;;;;1999.90;999.90;;;12.00;99.90;;;;;;5028476;28;20029;-77
2022/09/04 02:58:27;;;;;;;1999.90;999.90;;;12.00;99.90;;;;;;5023706;28;20029;-77
2022/09/04 03:01:21;;;;;;;1999.90;999.90;;;12.00;99.90;;;;;;4961888;28;20030;-77
2022/09/04 03:04:14;;;;;;;1999.90;999.90;;;12.00;99.90;;;;;;5026531;28;20292;-77
2022/09/04 03:07:19;;;;;;;1999.90;999.90;;;12.00;99.90;;;;;;5023305;28;20071;-77
2022/09/04 03:09:50;;;;;;;1999.90;999.90;;;12.00;99.90;;;;;;5025663;28;20113;-77
2022/09/04 03:12:48;;;;;;;1999.90;999.90;;;12.00;99.90;;;;;;5026990;28;20539;-78
2022/09/04 03:15:19;;;;;;;1999.90;999.90;;;12.00;99.90;;;;;;5026662;28;20418;-77
2022/09/04 03:18:09;;;;;;;1999.90;999.90;;;11.90;99.90;;;;;;5026512;28;20060;-78
2022/09/04 03:20:55;;;;;;;1999.90;999.90;;;11.90;99.90;;;;;;5026075;28;20533;-77
2022/09/04 03:23:27;;;;;;;1999.90;999.90;;;11.90;99.90;;;;;;5029815;28;20052;-77
2022/09/04 03:26:04;;;;;;;1999.90;999.90;;;11.90;99.90;;;;;;5027863;28;20075;-77
2022/09/04 03:28:40;;;;;;;1999.90;999.90;;;12.00;99.90;;;;;;5023804;28;20025;-77
2022/09/04 03:31:46;;;;;;;1999.90;999.90;;;12.10;99.90;;;;;;5025027;28;20037;-77
2022/09/04 03:34:34;;;;;;;1999.90;999.90;;;12.00;99.90;;;;;;4997105;28;20100;-77
2022/09/04 03:37:43;;;;;;;1999.90;999.90;;;12.10;99.90;;;;;;5012350;28;20096;-77
2022/09/04 03:40:17;;;;;;;1999.90;999.90;;;12.10;99.90;;;;;;5029062;28;20497;-77
2022/09/04 03:43:08;;;;;;;1999.90;999.90;;;12.10;99.90;;;;;;5029413;28;20087;-77
2022/09/04 03:45:52;;;;;;;1999.90;999.90;;;12.00;99.90;;;;;;5028923;28;20572;-77
2022/09/04 03:48:29;;;;;;;1999.90;999.90;;;12.00;99.90;;;;;;5016457;28;20319;-77
2022/09/04 03:51:13;;;;;;;1999.90;999.90;;;11.90;99.90;;;;;;5023456;28;20026;-77
2022/09/04 03:54:11;;;;;;;1999.90;999.90;;;12.00;99.90;;;;;;5023058;28;20574;-78
2022/09/04 03:56:40;;;;;;;1999.90;999.90;;;12.00;99.90;;;;;;5020350;28;20072;-78
2022/09/04 03:59:26;;;;;;;1999.90;999.90;;;12.00;99.90;;;;;;5026673;28;20152;-78
2022/09/04 04:02:09;;;;;;;1999.90;999.90;;;12.00;99.90;;;;;;5026721;28;20099;-77
2022/09/04 04:05:03;;;;;;;1999.90;999.90;;;12.00;99.90;;;;;;5028448;28;20496;-78
2022/09/04 04:08:00;;;;;;;1999.90;999.90;;;11.90;99.90;;;;;;5020522;28;20033;-77
2022/09/04 04:10:51;;;;;;;1999.90;999.90;;;11.90;99.90;;;;;;5027331;28;20103;-77
2022/09/04 04:13:46;;;;;;;1999.90;999.90;;;11.90;99.90;;;;;;5025442;28;20045;-77
2022/09/04 04:16:45;;;;;;;1999.90;999.90;;;11.90;99.90;;;;;;5039217;28;20046;-77
2022/09/04 04:19:38;;;;;;;1999.90;999.90;;;11.90;99.90;;;;;;4997941;28;20599;-77
2022/09/04 04:22:15;;;;;;;1999.90;999.90;;;11.90;99.90;;;;;;5024357;28;20037;-77
2022/09/04 04:25:11;;;;;;;1999.90;999.90;;;11.90;99.90;;;;;;5019829;28;20044;-77
2022/09/04 04:27:52;;;;;;;1999.90;999.90;;;11.70;99.90;;;;;;5023671;28;20025;-77
2022/09/04 04:30:18;;;;;;;1999.90;999.90;;;11.70;99.90;;;;;;5025561;28;20703;-77
2022/09/04 04:32:59;;;;;;;1999.90;999.90;;;11.80;99.90;;;;;;5022893;28;20065;-77
2022/09/04 04:36:01;;;;;;;1999.90;999.90;;;11.80;99.90;;;;;;5023567;28;20030;-77
2022/09/04 04:38:49;;;;;;;1999.90;999.90;;;11.80;99.90;;;;;;5032060;28;20022;-77
2022/09/04 04:48:06;;;;;;;1999.90;999.90;;;11.70;99.90;;;;;;5017683;28;20110;-77
2022/09/04 04:50:50;;;;;;;1999.90;999.90;;;11.80;99.90;;;;;;5025999;28;20033;-77
2022/09/04 04:53:47;;;;;;;1999.90;999.90;;;11.90;99.90;;;;;;5025108;28;20104;-77
2022/09/04 04:56:30;;;;;;;1999.90;999.90;;;12.00;99.90;;;;;;4997866;28;20057;-77
2022/09/04 04:59:04;;;;;;;1999.90;999.90;;;12.10;99.90;;;;;;5024876;28;20613;-77
2022/09/04 05:02:08;;;;;;;1999.90;999.90;;;12.30;99.90;;;;;;5027009;28;20041;-77
2022/09/04 05:05:01;;;;;;;1999.90;999.90;;;12.40;99.90;;;;;;5005778;28;20091;-77
2022/09/04 05:07:37;;;;;;;1999.90;999.90;;;12.40;99.90;;;;;;5026841;28;20602;-77
2022/09/04 05:10:34;;;;;;;1999.90;999.90;;;12.50;99.90;;;;;;5030084;28;20040;-77
2022/09/04 05:12:59;;;;;;;1999.90;999.90;;;12.60;99.90;;;;;;5023362;28;20444;-77
2022/09/04 05:15:51;;;;;;;1999.90;999.90;;;12.60;99.90;;;;;;5020566;28;20568;-77
2022/09/04 05:18:27;;;;;;;1999.90;999.90;;;12.70;99.90;;;;;;5020812;28;20501;-78
2022/09/04 05:20:58;;;;;;;1999.90;999.90;;;12.80;99.90;;;;;;5020482;28;20096;-77
2022/09/04 05:23:41;;;;;;;1999.90;999.90;;;12.90;99.90;;;;;;5023879;28;20650;-78
2022/09/04 05:26:15;;;;;;;1999.90;999.90;;;12.90;99.90;;;;;;5019453;28;20040;-77
2022/09/04 05:28:52;;;;;;;1999.90;999.90;;;13.10;99.90;;;;;;5028382;28;20105;-77
2022/09/04 05:31:41;;;;;;;1999.90;999.90;;;13.10;99.90;;;;;;5025314;28;20528;-77
2022/09/04 05:34:45;;;;;;;1999.90;999.90;;;13.10;99.90;;;;;;5023299;28;20083;-77
2022/09/04 05:37:47;;;;;;;1999.90;999.90;;;13.20;99.90;;;;;;5028272;28;20037;-78
2022/09/04 05:40:29;;;;;;;1999.90;999.90;;;13.20;99.90;;;;;;5023349;28;20056;-77
2022/09/04 05:43:24;;;;;;;1999.90;999.90;;;13.40;99.90;;;;;;5024304;28;20033;-77
2022/09/04 05:45:58;;;;;;;1999.90;999.90;;;13.40;99.90;;;;;;5028950;28;20033;-77
2022/09/04 05:49:02;;;;;;;1999.90;999.90;;;13.50;99.90;;;;;;5025903;28;20021;-78
2022/09/04 05:51:48;;;;;;;1999.90;999.90;;;13.60;99.90;;;;;;5024351;28;20029;-78
2022/09/04 05:54:38;;;;;;;1999.90;999.90;;;13.70;99.90;;;;;;5023536;28;20389;-78
2022/09/04 05:57:34;;;;;;;1999.90;999.90;;;13.70;99.90;;;;;;5024606;28;20049;-77
2022/09/04 06:00:17;;;;;;;1999.90;999.90;;;13.80;99.90;;;;;;4992918;28;20537;-78
2022/09/04 06:02:48;;;;;;;1999.90;999.90;;;13.80;99.90;;;;;;5020771;28;20802;-78
2022/09/04 06:05:32;;;;;;;1999.90;999.90;;;13.90;99.90;;;;;;5021376;28;20034;-77
2022/09/04 06:08:08;;;;;;;1999.90;999.90;;;14.00;99.90;;;;;;5020917;28;20029;-78
2022/09/04 06:10:46;;;;;;;1999.90;999.90;;;14.10;99.90;;;;;;5019627;28;20509;-77
2022/09/04 06:13:30;;;;;;;1999.90;999.90;;;14.10;99.90;;;;;;5025593;28;20030;-78
2022/09/04 06:16:14;;;;;;;1999.90;999.90;;;14.30;99.90;;;;;;5012306;28;20040;-78
2022/09/04 06:18:45;;;;;;;1999.90;999.90;;;14.40;99.90;;;;;;5040121;28;20041;-78
2022/09/04 06:21:20;;;;;;;1999.90;999.90;;;14.60;99.90;;;;;;5024108;28;20409;-78
2022/09/04 06:24:22;;;;;;;1999.90;999.90;;;14.80;99.90;;;;;;5019739;28;20166;-77
2022/09/04 06:27:10;;;;;;;1999.90;999.90;;;14.90;99.90;;;;;;5031535;28;20037;-77
2022/09/04 06:29:54;;;;;;;1999.90;999.90;;;15.10;99.90;;;;;;5026022;28;20025;-77
2022/09/04 06:32:41;;;;;;;1999.90;999.90;;;15.20;99.90;;;;;;5022848;28;20036;-78
2022/09/04 06:35:42;;;;;;;1999.90;999.90;;;15.20;99.90;;;;;;5020049;28;20033;-78
2022/09/04 06:38:36;;;;;;;1999.90;999.90;;;15.20;99.90;;;;;;5026072;28;20038;-78
2022/09/04 06:41:02;;;;;;;1999.90;999.90;;;15.20;99.90;;;;;;5021078;28;20045;-78
2022/09/04 06:44:13;;;;;;;1999.90;999.90;;;15.40;99.90;;;;;;5022303;28;20124;-78
2022/09/04 06:46:44;;;;;;;;;;;15.30;99.90;;;;;;5001127;28;20133;-78
2022/09/04 06:49:20;;;;;;;1999.90;999.90;;;15.20;99.90;;;;;;5023145;28;19914;-78
2022/09/04 06:52:12;;;;;;;1999.90;999.90;;;15.20;99.90;;;;;;5027008;28;20053;-78
2022/09/04 06:54:59;;;;;;;1999.90;999.90;;;15.30;99.90;;;;;;5019279;28;20041;-78
2022/09/04 06:57:31;;;;;;;1999.90;999.90;;;15.30;99.90;;;;;;5022922;28;20076;-79
2022/09/04 07:00:17;;;;;;;1999.90;999.90;;;15.40;99.90;;;;;;5024733;28;20420;-79
2022/09/04 07:03:00;;;;;;;1999.90;999.90;;;15.60;99.90;;;;;;5009707;28;20506;-79
2022/09/04 07:05:48;;;;;;;1999.90;999.90;;;15.80;99.90;;;;;;5014266;28;20029;-79
2022/09/04 07:08:16;;;;;;;1999.90;999.90;;;15.90;99.90;;;;;;5018018;28;20026;-80
2022/09/04 07:10:51;;;;;;;1999.90;999.90;;;16.00;99.90;;;;;;5021043;28;20025;-79
2022/09/04 07:13:40;;;;;;;1999.90;999.90;;;16.10;99.90;;;;;;5024474;28;20030;-80
2022/09/04 07:16:24;;;;;;;1999.90;999.90;;;16.20;99.90;;;;;;5030082;28;20100;-79
2022/09/04 07:18:56;;;;;;;1999.90;999.90;;;16.40;99.90;;;;;;5028577;28;20029;-78
2022/09/04 07:21:34;;;;;;;1999.90;999.90;;;16.30;99.90;;;;;;5026023;28;20112;-79
2022/09/04 07:24:10;;;;;;;1999.90;999.90;;;16.30;99.90;;;;;;5018505;28;20033;-79
2022/09/04 07:26:50;;;;;;;1999.90;999.90;;;16.50;99.90;;;;;;5019382;28;20025;-79
2022/09/04 07:29:35;;;;;;;1999.90;999.90;;;16.50;99.90;;;;;;5022032;28;20033;-79
2022/09/04 07:32:17;;;;;;;1618.18;768.35;;;16.60;99.90;;;;;;5025928;28;20033;-79
2022/09/04 07:35:09;;;;;;;1589.00;730.08;;;16.70;99.90;;;;;;5029545;28;20055;-79
2022/09/04 07:37:47;;;;;;;1999.90;999.90;;;16.80;99.90;;;;;;5020212;28;20095;-78
2022/09/04 07:40:21;;;;;;;1999.90;999.90;;;16.70;99.90;;;;;;5009717;28;20050;-78
2022/09/04 07:43:20;;;;;;;1779.45;843.17;;;16.90;99.90;;;;;;5017914;28;20096;-78
2022/09/04 07:45:57;;;;;;;1999.90;999.90;;;17.00;99.90;;;;;;5018984;28;20057;-78
2022/09/04 07:48:27;;;;;;;1947.75;953.28;;;17.20;99.90;;;;;;5023264;28;20014;-79
2022/09/04 07:51:08;;;;;;;1999.90;999.90;;;17.30;99.90;;;;;;5017710;28;20817;-78
2022/09/04 07:53:49;;;;;;;1999.90;999.90;;;17.40;99.90;;;;;;5018727;28;20034;-79
2022/09/04 07:56:44;;;;;;;1999.90;999.90;;;17.50;99.90;;;;;;5028226;28;20038;-79
2022/09/04 07:59:47;;;;;;;1999.90;999.90;;;17.60;99.90;;;;;;4997155;28;20198;-79
2022/09/04 08:02:30;;;;;;;1999.90;999.90;;;17.90;99.90;;;;;;5019164;28;20038;-81
2022/09/04 08:05:14;;;;;;;1999.90;999.90;;;18.20;99.90;;;;;;5026572;28;20053;-79
2022/09/04 08:07:40;;;;;;;1999.90;999.90;;;18.20;99.90;;;;;;5020438;28;20477;-78
2022/09/04 08:10:08;;;;;;;1999.90;999.90;;;18.40;99.90;;;;;;5015102;28;20105;-78
2022/09/04 08:13:01;;;;;;;1999.90;999.90;;;18.50;99.90;;;;;;5011500;28;20026;-78
2022/09/04 08:15:47;;;;;;;1999.90;999.90;;;18.70;99.90;;;;;;5011252;28;20033;-78
2022/09/04 08:18:22;;;;;;;1996.05;962.50;;;18.70;99.90;;;;;;5011349;28;20026;-80
2022/09/04 08:21:18;;;;;;;1999.90;999.90;;;18.80;99.90;;;;;;5016213;28;20056;-78
2022/09/04 08:24:12;;;;;;;1923.25;999.90;;;19.10;99.90;;;;;;5019865;28;20038;-78
2022/09/04 08:26:59;;;;;;;1255.88;999.90;;;19.30;99.90;;;;;;5019468;28;20030;-79
2022/09/04 08:30:02;;;;;;;1236.10;992.35;;;19.50;99.90;;;;;;5022608;28;20049;-79
2022/09/04 08:32:54;;;;;;;1115.35;913.78;;;19.60;99.90;;;;;;5019843;28;20041;-79
2022/09/04 08:35:35;;;;;;;1909.53;999.90;;;19.70;99.90;;;;;;5023251;28;20037;-79
2022/09/04 08:38:09;;;;;;;;;;;19.70;99.90;;;;;;5026497;28;20540;-78
2022/09/04 08:41:17;;;;;;;1601.60;999.90;;;19.90;99.90;;;;;;5027208;28;19923;-78
2022/09/04 08:43:54;;;;;;;1068.68;898.58;;;20.00;99.90;;;;;;5022545;28;20079;-79
2022/09/04 08:47:00;;;;;;;1560.03;999.90;;;20.20;99.90;;;;;;5020018;28;20030;-77
2022/09/04 08:50:03;;;;;;;851.40;786.03;;;20.40;99.90;;;;;;5025833;28;20033;-76
2022/09/04 08:52:49;;;;;;;946.75;859.50;;;20.40;99.90;;;;;;5031419;28;20503;-76
2022/09/04 08:55:38;;;;;;;977.50;880.63;;;20.70;99.90;;;;;;5027110;28;20025;-76
2022/09/04 08:58:22;;;;;;;915.27;831.93;;;20.90;99.90;;;;;;5028189;28;20052;-76
2022/09/04 09:00:54;;;;;;;690.72;648.42;;;21.10;99.90;;;;;;5022002;28;20029;-79
2022/09/04 09:03:38;;;;;;;790.22;727.05;;;21.10;99.40;;;;;;5033735;28;20045;-78
2022/09/04 09:06:50;;;;;;;869.15;801.05;;;21.20;99.90;;;;;;5030525;28;20061;-85
2022/09/04 09:09:52;;;;;;;825.05;766.05;;;21.40;99.90;;;;;;5026002;28;20076;-76
2022/09/04 09:12:23;;;;;;;969.47;878.50;;;21.40;98.30;;;;;;5029019;28;20029;-80
2022/09/04 09:15:24;;;;;;;1552.22;999.90;;;21.50;99.90;;;;;;5022372;28;20065;-80
2022/09/04 09:18:10;;;;;;;922.42;835.22;;;21.40;99.90;;;;;;5022222;28;20030;-80
2022/09/04 09:21:00;;;;;;;718.78;674.95;;;21.90;99.90;;;;;;5010903;28;20038;-79
2022/09/04 09:23:36;;;;;;;1052.70;938.47;;;22.20;95.00;;;;;;5042372;28;20953;-81
2022/09/04 09:26:33;;;;;;;775.80;719.97;;;22.20;99.90;;;;;;5027641;28;20029;-80
2022/09/04 09:29:07;;;;;;;737.35;691.58;;;22.10;99.90;;;;;;5024686;28;20034;-80
2022/09/04 09:31:45;;;;;;;577.25;543.72;;;22.20;96.80;;;;;;5029540;28;20034;-80
2022/09/04 09:34:34;;;;;;;622.15;574.67;;;22.40;93.30;;;;;;5024513;28;20121;-80
2022/09/04 09:37:36;;;;;;;565.80;529.42;;;22.60;92.90;;;;;;5024583;28;20077;-80
2022/09/04 09:40:07;;;;;;;211.00;202.23;;;22.90;91.30;;;;;;5026154;28;20072;-79
2022/09/04 09:43:10;;;;;;;297.27;283.35;;;23.10;86.70;;;;;;5018576;28;20069;-86
2022/09/04 09:45:58;;;;;;;135.80;130.70;;;23.30;87.90;;;;;;5027396;28;20038;-84
2022/09/04 09:48:54;;;;;;;315.00;298.73;;;23.50;83.20;;;;;;5027701;28;20033;-86
2022/09/04 09:51:42;;;;;;;152.40;146.43;;;23.20;87.10;;;;;;5017372;28;20026;-84
2022/09/04 09:54:42;;;;;;;352.52;335.38;;;22.90;77.00;;;;;;5011971;28;20030;-84
2022/09/04 09:57:10;;;;;;;241.07;229.70;;;23.10;87.50;;;;;;5030534;28;20026;-83
2022/09/04 10:00:01;;;;;;;364.98;348.10;;;23.30;84.30;;;;;;5027600;28;20037;-84
2022/09/04 10:02:45;;;;;;;294.15;282.02;;;23.80;87.90;;;;;;5014815;28;20042;-88
2022/09/04 10:05:36;;;;;;;131.95;127.05;;;24.00;83.70;;;;;;5039885;28;20389;-86
2022/09/04 10:08:36;;;;;;;206.15;198.15;;;23.80;73.50;;;;;;5011971;28;20349;-85
2022/09/04 10:11:07;;;;;;;;;;;24.20;82.00;;;;;;5017215;28;20157;-85
2022/09/04 10:13:33;;;;;;;183.52;175.13;;;24.50;78.10;;;;;;5016191;28;19960;-85
2022/09/04 10:16:51;;;;;;;138.18;133.07;;;24.40;75.10;;;;;;5018939;28;20022;-85
2022/09/04 10:19:37;;;;;;;96.72;92.93;;;24.80;68.50;;;;;;4981671;28;20034;-88
2022/09/04 10:22:22;;;;;;;112.15;107.82;;;24.90;67.40;;;;;;5028958;28;20038;-85
2022/09/04 10:25:12;;;;;;;124.30;119.47;;;24.80;66.70;;;;;;5021479;28;20067;-85
2022/09/04 10:27:58;;;;;;;78.78;75.55;;;24.80;64.70;;;;;;5023181;28;20235;-85
2022/09/04 10:30:39;;;;;;;109.97;105.72;;;24.80;63.80;;;;;;5014489;28;20026;-86
2022/09/04 10:33:20;;;;;;;209.98;201.65;;;25.60;65.30;;;;;;5020797;28;20047;-87
2022/09/04 10:36:24;;;;;;;108.03;103.88;;;25.60;63.00;;;;;;5016530;28;20105;-87
2022/09/04 10:42:24;;;;;;;43.80;42.10;;;26.00;64.80;;;;;;4960536;28;20056;-85
2022/09/04 10:45:04;;;;;;;71.22;68.38;;;25.40;56.70;;;;;;5028664;28;20026;-86
2022/09/04 10:47:39;;;;;;;83.57;80.40;;;25.70;58.10;;;;;;5021674;28;20030;-84
2022/09/04 10:50:24;;;;;;;53.80;51.72;;;25.70;59.80;;;;;;5030583;28;20087;-84
2022/09/04 10:53:00;;;;;;;75.60;72.72;;;26.10;54.50;;;;;;5020638;28;20030;-85
2022/09/04 10:55:58;;;;;;;35.38;33.75;;;27.00;55.90;;;;;;5018306;28;20428;-81
2022/09/04 10:58:28;;;;;;;41.97;40.33;;;27.40;48.80;;;;;;5030837;28;20486;-81
2022/09/04 11:01:12;;;;;;;30.58;29.38;;;27.00;50.60;;;;;;5018289;28;20037;-80
2022/09/04 11:03:49;;;;;;;36.78;35.30;;;27.90;48.30;;;;;;5021971;28;20030;-80
2022/09/04 11:06:34;;;;;;;34.53;33.08;;;27.90;45.30;;;;;;5024416;28;20380;-81
2022/09/04 11:09:08;;;;;;;43.60;41.92;;;29.10;44.20;;;;;;5013620;28;20101;-80
2022/09/04 11:11:46;;;;;;;46.80;44.92;;;29.00;43.20;;;;;;5021306;28;20033;-80
2022/09/04 11:15:00;;;;;;;47.35;45.45;;;29.50;41.20;;;;;;5024454;28;20033;-80
2022/09/04 11:17:32;;;;;;;50.50;48.53;;;29.40;40.40;;;;;;5022351;28;20408;-80
2022/09/04 11:20:19;;;;;;;57.10;54.83;;;29.30;40.70;;;;;;5020487;28;20375;-80
2022/09/04 11:23:10;;;;;;;52.33;49.97;;;29.30;37.60;;;;;;5024040;28;20103;-80
2022/09/04 11:26:04;;;;;;;57.35;54.72;;;29.90;41.60;;;;;;4971577;28;20052;-80
2022/09/04 11:28:45;;;;;;;30.08;28.88;;;30.00;37.30;;;;;;5026983;28;20029;-80
2022/09/04 11:31:31;;;;;;;51.83;49.83;;;30.50;33.30;;;;;;5020147;28;20053;-81
2022/09/04 11:34:31;;;;;;;44.50;42.85;;;29.60;38.70;;;;;;5019493;28;20065;-80
2022/09/04 11:37:03;;;;;;;26.23;25.23;;;29.90;37.00;;;;;;5022003;28;20107;-81
2022/09/04 11:39:53;;;;;;;31.10;29.65;;;30.70;33.50;;;;;;5013378;28;20409;-80
2022/09/04 11:42:27;;;;;;;29.08;27.88;;;31.60;35.20;;;;;;5014452;28;20048;-80
2022/09/04 11:44:59;;;;;;;57.22;55.03;;;31.40;32.70;;;;;;5017661;28;20038;-80
2022/09/04 11:47:28;;;;;;;54.75;52.70;;;32.20;28.70;;;;;;5023459;28;20049;-80
2022/09/04 11:50:17;;;;;;;36.70;35.30;;;31.40;29.50;;;;;;5024762;28;20075;-80
2022/09/04 11:53:11;;;;;;;46.23;44.37;;;32.60;31.60;;;;;;5019786;28;20025;-81
2022/09/04 11:56:08;;;;;;;51.72;49.67;;;32.60;28.40;;;;;;5019831;28;20040;-79
2022/09/04 11:58:53;;;;;;;49.15;47.20;;;32.60;29.20;;;;;;5021527;28;20451;-82
2022/09/04 12:01:55;;;;;;;69.35;66.80;;;31.30;35.00;;;;;;5024720;28;20034;-81
2022/09/04 12:04:28;;;;;;;81.95;78.95;;;30.80;31.20;;;;;;5014122;28;20044;-80
2022/09/04 12:07:05;;;;;;;47.38;45.53;;;32.20;30.00;;;;;;5020384;28;20485;-81
2022/09/04 12:09:43;;;;;;;100.50;96.70;;;31.20;30.00;;;;;;5017200;28;20056;-80
2022/09/04 12:12:34;;;;;;;59.38;57.05;;;31.50;29.40;;;;;;5011597;28;20033;-80
2022/09/04 12:15:30;;;;;;;81.05;77.93;;;32.70;32.70;;;;;;5018701;28;20030;-80
2022/09/04 12:18:15;;;;;;;72.18;69.43;;;32.50;30.00;;;;;;5031408;28;20108;-80
2022/09/04 12:20:47;;;;;;;60.35;57.75;;;32.00;29.00;;;;;;5031303;28;20057;-81
2022/09/04 12:23:25;;;;;;;81.43;78.45;;;31.40;28.70;;;;;;5019391;28;20034;-81
2022/09/04 12:26:21;;;;;;;100.93;97.32;;;32.00;30.10;;;;;;5021081;28;20025;-81
2022/09/04 12:28:52;;;;;;;41.50;39.80;;;34.00;26.70;;;;;;5020537;28;20556;-81
2022/09/04 12:31:52;;;;;;;68.03;65.38;;;35.10;27.70;;;;;;5024189;28;20109;-81
2022/09/04 12:34:33;;;;;;;52.88;50.88;;;32.10;29.70;;;;;;5021562;28;20025;-78
2022/09/04 12:37:13;;;;;;;63.47;61.15;;;31.70;32.60;;;;;;5019106;28;20026;-79
2022/09/04 12:40:24;;;;;;;78.25;75.30;;;31.30;30.20;;;;;;5009857;28;20059;-79
2022/09/04 12:42:58;;;;;;;70.95;68.25;;;30.90;32.80;;;;;;5012617;28;20026;-79
2022/09/04 12:45:48;;;;;;;86.80;83.57;;;30.80;31.70;;;;;;5014309;28;20034;-79
2022/09/04 12:48:38;;;;;;;97.00;93.50;;;32.30;30.30;;;;;;5023427;28;20053;-79
2022/09/04 12:51:17;;;;;;;59.13;56.88;;;32.20;30.30;;;;;;5017614;28;20023;-82
2022/09/04 12:53:59;;;;;;;80.75;77.43;;;33.10;28.30;;;;;;5006536;28;20033;-81
2022/09/04 12:56:41;;;;;;;49.75;47.88;;;34.30;26.40;;;;;;5023702;28;20745;-81
2022/09/04 12:59:22;;;;;;;50.47;48.50;;;34.40;26.40;;;;;;5023808;28;20891;-82
2022/09/04 13:02:04;;;;;;;52.72;50.72;;;31.20;32.50;;;;;;5020037;28;20030;-81
2022/09/04 13:04:54;;;;;;;45.40;43.58;;;28.80;34.40;;;;;;5021977;28;20033;-81
2022/09/04 13:07:39;;;;;;;46.58;44.65;;;28.50;35.00;;;;;;5021837;28;20108;-82
2022/09/04 13:10:22;;;;;;;34.53;33.08;;;28.30;35.10;;;;;;5017728;28;20489;-81
2022/09/04 13:13:06;;;;;;;39.58;37.85;;;29.40;34.10;;;;;;5031202;28;20040;-80
2022/09/04 13:15:50;;;;;;;31.98;30.58;;;30.30;31.30;;;;;;5024833;28;20060;-82
2022/09/04 13:18:34;;;;;;;30.13;28.77;;;31.60;31.50;;;;;;5019166;28;20029;-78
2022/09/04 13:21:27;;;;;;;50.25;48.22;;;30.30;30.40;;;;;;5024001;28;20512;-78
2022/09/04 13:24:07;;;;;;;31.60;30.30;;;28.40;36.40;;;;;;5030713;28;20112;-79
2022/09/04 13:27:01;;;;;;;40.42;38.75;;;27.50;35.70;;;;;;5029986;28;20025;-78
2022/09/04 13:29:49;;;;;;;41.50;39.63;;;26.70;38.70;;;;;;5024281;28;20112;-78
2022/09/04 13:32:39;;;;;;;43.95;42.08;;;26.20;40.00;;;;;;5026837;28;20456;-78
2022/09/04 13:35:11;;;;;;;43.92;42.33;;;26.30;39.50;;;;;;5024492;28;20017;-78
2022/09/04 13:37:56;;;;;;;43.22;41.45;;;26.30;39.50;;;;;;5021192;28;20032;-78
2022/09/04 13:40:59;;;;;;;41.70;40.00;;;26.80;39.80;;;;;;5027217;28;20128;-79
2022/09/04 13:43:39;;;;;;;33.97;32.65;;;28.60;36.20;;;;;;5020142;28;20057;-78
2022/09/04 13:46:23;;;;;;;34.03;32.70;;;29.10;33.20;;;;;;5021286;28;20112;-78